Time;durP1;ratioP1;P1;durP2;ratioP2;P2;SDS_P1;SDS_P2;PMS_P1;PMS_P2;Temp;Humidity;BMP_temperature;BMP_pressure;BME280_temperature;BME280_humidity;BME280_pressure;Samples;Min_cycle;Max_cycle;Signal;HPM_P1;HPM_P2
2022/02/03 00:00:08;;;;;;;11.95;5.10;;;;;;;-0.61;83.39;100785.16;1644269;86;21035;-70
2022/02/03 00:02:41;;;;;;;9.95;4.35;;;;;;;-0.60;83.42;100769.33;1644327;85;21607;-70
2022/02/03 00:05:14;;;;;;;12.98;5.90;;;;;;;-0.59;83.46;100778.88;1634241;86;21096;-70
2022/02/03 00:08:06;;;;;;;18.23;7.35;;;;;;;-0.60;83.47;100781.12;1639863;85;21081;-70
2022/02/03 00:10:27;;;;;;;38.38;15.55;;;;;;;-0.61;83.50;100786.00;1659261;84;21277;-69
2022/02/03 00:24:16;;;;;;;28.40;14.78;;;;;;;-0.45;83.66;100792.48;1647947;87;21847;-71
2022/02/03 00:26:12;;;;;;;32.23;17.48;;;;;;;-0.41;83.66;100798.38;1647786;86;21038;-71
2022/02/03 00:28:45;;;;;;;34.85;18.23;;;;;;;-0.42;83.68;100797.53;1677524;85;21006;-71
2022/02/03 00:31:21;;;;;;;32.03;15.80;;;;;;;-0.45;83.72;100796.87;1678117;85;21449;-71
2022/02/03 00:33:47;;;;;;;28.47;12.23;;;;;;;-0.48;83.75;100799.67;1635767;87;21324;-71
2022/02/03 00:36:17;;;;;;;32.13;12.47;;;;;;;-0.52;83.78;100807.72;1660074;85;21134;-71
2022/02/03 00:49:25;;;;;;;19.62;6.10;;;;;;;-0.67;83.87;100828.23;1633383;87;21209;-71
2022/02/03 00:51:53;;;;;;;15.38;6.45;;;;;;;-0.73;83.91;100837.77;1665515;85;21019;-71
2022/02/03 00:54:21;;;;;;;19.23;7.55;;;;;;;-0.77;83.94;100839.32;1652632;85;21015;-71
2022/02/03 00:57:01;;;;;;;19.60;8.68;;;;;;;-0.83;83.96;100840.53;1655061;86;21028;-71
2022/02/03 00:59:44;;;;;;;21.73;10.35;;;;;;;-0.85;83.98;100847.64;1655808;86;21030;-71
2022/02/03 01:02:13;;;;;;;24.30;13.75;;;;;;;-0.82;84.01;100858.39;1649448;86;21149;-71
2022/02/03 01:04:40;;;;;;;20.15;11.08;;;;;;;-0.77;84.05;100864.20;1650008;87;21057;-71
2022/02/03 01:07:18;;;;;;;16.35;9.20;;;;;;;-0.71;84.07;100868.65;1650268;87;21037;-71
2022/02/03 01:10:00;;;;;;;15.58;6.03;;;;;;;-0.66;84.07;100870.52;1650369;87;21025;-71
2022/02/03 01:12:31;;;;;;;21.30;5.87;;;;;;;-0.60;84.10;100870.66;1648644;86;21061;-71
2022/02/03 01:33:52;;;;;;;30.10;16.35;;;;;;;-0.35;84.34;100877.45;1615810;87;21783;-71
2022/02/03 01:44:55;;;;;;;13.20;7.37;;;;;;;-0.29;84.46;100884.13;1646613;87;21098;-71
2022/02/03 01:52:33;;;;;;;14.83;5.28;;;;;;;-0.25;84.59;100885.65;1610658;89;21539;-71
2022/02/03 01:55:02;;;;;;;13.75;5.15;;;;;;;-0.24;84.62;100884.69;1625596;87;21087;-70
2022/02/03 01:57:58;;;;;;;19.92;5.83;;;;;;;-0.25;84.66;100879.09;1646544;87;21063;-72
2022/02/03 02:00:25;;;;;;;11.80;4.65;;;;;;;-0.22;84.69;100886.77;1645777;87;21046;-71
2022/02/03 02:03:14;;;;;;;12.05;5.20;;;;;;;-0.22;84.72;100885.46;1640819;87;21057;-71
2022/02/03 02:06:33;;;;;;;15.57;6.80;;;;;;;-0.22;84.74;100889.39;1641284;87;21102;-71
2022/02/03 02:09:23;;;;;;;28.60;16.05;;;;;;;-0.22;84.78;100882.84;1640850;87;21298;-71
2022/02/03 02:12:21;;;;;;;30.30;18.25;;;;;;;-0.23;84.82;100886.39;1640878;87;21102;-72
2022/02/03 02:18:11;;;;;;;26.45;18.12;;;;;;;-0.24;84.87;100888.63;1620173;87;21099;-72
2022/02/03 02:37:36;;;;;;;18.40;6.78;;;;;;;-0.55;85.04;100911.35;1654581;86;21843;-71
2022/02/03 02:40:46;;;;;;;17.05;6.55;;;;;;;-0.63;85.06;100910.94;1647343;86;21011;-70
2022/02/03 02:42:59;;;;;;;17.30;6.10;;;;;;;-0.67;85.08;100909.41;1648524;86;21043;-70
2022/02/03 02:45:55;;;;;;;18.73;6.60;;;;;;;-0.73;85.08;100905.84;1654600;86;21011;-70
2022/02/03 02:48:53;;;;;;;17.27;5.80;;;;;;;-0.76;85.11;100903.39;1651386;86;21079;-70
2022/02/03 02:51:26;;;;;;;23.32;7.75;;;;;;;-0.79;85.14;100902.27;1655928;86;21280;-70
2022/02/03 02:56:36;;;;;;;24.45;10.60;;;;;;;-0.82;85.20;100901.13;1654877;86;21528;-70
2022/02/03 03:29:20;;;;;;;15.05;5.58;;;;;;;-0.78;85.53;100909.66;1649311;84;21062;-70
2022/02/03 03:37:29;;;;;;;11.00;4.22;;;;;;;-0.62;85.61;100904.77;1646675;87;21558;-70
2022/02/03 03:39:48;;;;;;;15.78;5.60;;;;;;;-0.57;85.67;100909.30;1644271;86;26997;-70
2022/02/03 03:42:14;;;;;;;11.90;5.05;;;;;;;-0.53;85.70;100921.27;1622412;88;24970;-70
2022/02/03 03:44:42;;;;;;;14.25;4.37;;;;;;;-0.47;85.72;100921.86;1621983;88;21893;-71
2022/02/03 03:47:08;;;;;;;15.05;3.35;;;;;;;-0.44;85.76;100913.83;1622531;88;21056;-71
2022/02/03 03:49:43;;;;;;;12.07;3.90;;;;;;;-0.41;85.79;100918.88;1622628;88;21095;-71
2022/02/03 03:52:11;;;;;;;14.23;3.52;;;;;;;-0.40;85.82;100917.50;1621683;88;21032;-70
2022/02/03 03:54:40;;;;;;;;;;;;;;;-0.39;85.85;100916.58;1624389;88;21080;-71
2022/02/03 03:57:25;;;;;;;12.80;3.25;;;;;;;-0.38;85.89;100917.39;1621919;88;21046;-71
2022/02/03 04:43:43;;;;;;;11.80;3.08;;;;;;;-0.32;86.39;100924.47;1621906;88;21037;-70
2022/02/03 05:03:18;;;;;;;10.85;2.42;;;;;;;-0.23;86.58;100925.70;1632570;87;21026;-70
2022/02/03 05:08:45;;;;;;;10.93;2.00;;;;;;;-0.20;86.63;100937.31;1599727;89;21569;-70
2022/02/03 05:23:32;;;;;;;20.72;5.15;;;;;;;-0.13;86.74;100929.47;1630816;88;21196;-71
2022/02/03 05:26:40;;;;;;;;;;;;;;;-0.10;86.76;100926.20;1606042;89;21071;-71
2022/02/03 05:44:07;;;;;;;18.35;7.70;;;;;;;-0.09;86.87;100920.50;1655867;85;21034;-71
2022/02/03 05:46:45;;;;;;;16.48;4.30;;;;;;;-0.07;86.91;100927.33;1653590;86;21083;-71
2022/02/03 05:54:48;;;;;;;14.33;4.95;;;;;;;0.01;86.94;100937.38;1655660;86;21043;-71
2022/02/03 06:05:28;;;;;;;24.75;4.45;;;;;;;0.05;87.02;100949.37;1619492;88;21104;-71
2022/02/03 06:07:49;;;;;;;20.00;6.58;;;;;;;0.06;87.02;100947.14;1645007;86;21041;-71
2022/02/03 06:13:01;;;;;;;17.98;8.53;;;;;;;0.12;87.04;100952.02;1658480;86;21076;-72
2022/02/03 06:23:49;;;;;;;19.52;4.12;;;;;;;0.25;87.10;100921.50;1647330;86;21089;-71
2022/02/03 06:29:10;;;;;;;20.10;3.73;;;;;;;0.29;87.14;100913.83;1595170;88;21574;-72
2022/02/03 06:31:37;;;;;;;17.55;3.30;;;;;;;0.32;87.13;100920.66;1595134;90;21431;-71
2022/02/03 06:34:04;;;;;;;11.57;3.12;;;;;;;0.30;87.15;100911.59;1595182;88;20990;-71
2022/02/03 06:36:31;;;;;;;14.47;2.47;;;;;;;0.27;87.15;100914.40;1595138;90;21538;-71
2022/02/03 06:38:57;;;;;;;14.35;3.20;;;;;;;0.24;87.16;100910.66;1627395;88;21066;-71
2022/02/03 06:41:23;;;;;;;17.07;3.40;;;;;;;0.24;87.18;100917.21;1627083;87;21006;-71
2022/02/03 06:43:49;;;;;;;11.90;2.87;;;;;;;0.24;87.18;100911.97;1627000;88;21086;-71
2022/02/03 06:46:16;;;;;;;7.85;2.80;;;;;;;0.28;87.20;100908.20;1622588;88;21079;-71
2022/02/03 06:48:47;;;;;;;14.43;3.40;;;;;;;0.32;87.21;100907.08;1623576;88;21082;-71
2022/02/03 06:51:19;;;;;;;15.65;2.85;;;;;;;0.35;87.21;100908.20;1626020;88;21100;-71
2022/02/03 06:53:43;;;;;;;17.30;3.33;;;;;;;0.38;87.21;100908.05;1621447;88;21040;-71
2022/02/03 06:56:13;;;;;;;15.78;3.33;;;;;;;0.42;87.23;100898.21;1625447;88;21058;-71
2022/02/03 06:58:49;;;;;;;17.07;2.80;;;;;;;0.45;87.25;100901.48;1627386;87;21548;-71
2022/02/03 07:01:14;;;;;;;11.95;2.45;;;;;;;0.47;87.24;100907.94;1625812;87;21128;-71
2022/02/03 07:03:39;;;;;;;13.93;2.83;;;;;;;0.47;87.22;100902.23;1626986;87;21471;-71
2022/02/03 07:06:02;;;;;;;9.65;3.08;;;;;;;0.50;87.22;100900.72;1627563;88;21050;-71
2022/02/03 07:08:30;;;;;;;15.85;3.30;;;;;;;0.57;87.19;100905.13;1624390;88;21136;-71
2022/02/03 07:10:56;;;;;;;17.98;5.05;;;;;;;0.64;87.21;100906.89;1622252;88;21733;-71
2022/02/03 07:13:23;;;;;;;15.63;2.83;;;;;;;0.70;87.20;100918.35;1626121;88;21045;-71
2022/02/03 07:15:49;;;;;;;11.48;3.12;;;;;;;0.75;87.23;100907.93;1628001;87;21033;-71
2022/02/03 07:18:17;;;;;;;15.53;4.87;;;;;;;0.81;87.25;100911.48;1627724;88;21053;-72
2022/02/03 07:20:43;;;;;;;21.82;3.95;;;;;;;0.85;87.25;100902.48;1605758;88;21165;-71
2022/02/03 07:23:09;;;;;;;29.87;9.53;;;;;;;0.86;87.25;100904.64;1627845;88;21071;-71
2022/02/03 07:25:38;;;;;;;19.90;5.78;;;;;;;0.91;87.29;100903.89;1628228;87;21073;-71
2022/02/03 07:28:07;;;;;;;47.48;12.55;;;;;;;0.96;87.27;100893.92;1648569;85;21034;-71
2022/02/03 07:30:33;;;;;;;102.22;27.82;;;;;;;0.99;87.26;100893.27;1644903;85;21537;-71
2022/02/03 07:33:01;;;;;;;124.30;37.38;;;;;;;1.00;87.19;100883.61;1658757;85;21325;-71
2022/02/03 07:35:29;;;;;;;64.47;20.00;;;;;;;1.03;87.22;100876.84;1649856;86;21092;-71
2022/02/03 07:37:55;;;;;;;164.28;47.58;;;;;;;1.03;87.20;100876.84;1650913;85;21154;-71
2022/02/03 07:40:21;;;;;;;701.55;356.30;;;;;;;1.03;87.19;100876.84;1629468;87;21079;-71
2022/02/03 07:42:50;;;;;;;511.88;219.15;;;;;;;1.04;87.19;100873.28;1645401;85;21007;-71
2022/02/03 07:45:16;;;;;;;399.67;144.82;;;;;;;1.06;87.18;100869.23;1656693;86;21192;-71
2022/02/03 07:47:47;;;;;;;283.73;100.78;;;;;;;1.08;87.17;100865.59;1658632;86;21051;-71
2022/02/03 07:50:13;;;;;;;134.12;53.95;;;;;;;1.08;87.16;100860.34;1654809;86;21526;-71
2022/02/03 07:52:40;;;;;;;69.25;23.18;;;;;;;1.04;87.15;100857.53;1650608;87;21104;-71
2022/02/03 07:55:06;;;;;;;71.00;21.50;;;;;;;0.99;87.13;100858.28;1650778;87;21061;-71
2022/02/03 07:57:33;;;;;;;181.70;44.50;;;;;;;0.97;87.12;100858.86;1650715;87;21177;-71
2022/02/03 07:59:59;;;;;;;194.28;47.43;;;;;;;0.93;87.07;100856.05;1657222;86;21039;-72
2022/02/03 08:02:25;;;;;;;176.70;45.40;;;;;;;0.92;87.05;100854.36;1657033;86;21534;-71
2022/02/03 08:04:53;;;;;;;165.12;40.65;;;;;;;0.96;87.05;100854.55;1666920;85;20988;-71
2022/02/03 08:07:21;;;;;;;187.55;48.17;;;;;;;0.98;87.03;100857.93;1665798;85;21050;-71
2022/02/03 08:12:23;;;;;;;27.95;7.45;;;;;;;1.18;87.02;100854.86;1674625;85;21075;-72
2022/02/03 08:14:49;;;;;;;20.37;5.65;;;;;;;1.36;87.01;100851.51;1675420;85;21057;-72
2022/02/03 08:17:23;;;;;;;22.55;6.28;;;;;;;1.56;87.03;100854.13;1671258;85;21521;-72
2022/02/03 08:19:59;;;;;;;23.55;6.25;;;;;;;1.67;86.97;100850.32;1650139;86;21030;-71
2022/02/03 08:22:32;;;;;;;58.17;21.15;;;;;;;1.75;86.96;100845.41;1650765;86;21142;-71
2022/02/03 08:24:55;;;;;;;44.08;14.23;;;;;;;1.83;86.92;100843.11;1657074;86;21063;-71
2022/02/03 08:27:41;;;;;;;35.25;10.55;;;;;;;1.85;86.88;100835.48;1641061;85;21095;-72
2022/02/03 08:32:26;;;;;;;43.10;11.10;;;;;;;1.89;86.79;100829.07;1649863;86;21552;-71
2022/02/03 08:37:23;;;;;;;37.20;12.77;;;;;;;1.98;86.72;100832.84;1660630;86;21034;-71
2022/02/03 08:39:53;;;;;;;36.83;12.03;;;;;;;2.05;86.68;100832.80;1630750;88;21042;-71
2022/02/03 08:42:17;;;;;;;28.15;9.75;;;;;;;2.12;86.66;100831.89;1659654;85;21037;-71
2022/02/03 08:44:43;;;;;;;22.90;9.33;;;;;;;2.18;86.65;100842.83;1659105;86;21514;-71
2022/02/03 08:47:09;;;;;;;57.93;24.50;;;;;;;2.23;86.59;100842.05;1659661;86;21150;-71
2022/02/03 08:49:39;;;;;;;39.78;14.07;;;;;;;2.28;86.54;100839.12;1665034;85;21099;-71
2022/02/03 08:52:08;;;;;;;26.02;9.40;;;;;;;2.35;86.50;100837.27;1655325;86;21086;-72
2022/02/03 08:54:35;;;;;;;40.95;11.53;;;;;;;2.38;86.45;100836.20;1667334;85;21011;-71
2022/02/03 08:57:04;;;;;;;32.03;8.90;;;;;;;2.39;86.39;100833.45;1649685;85;21401;-71
2022/02/03 09:37:16;;;;;;;21.45;4.62;;;;;;;3.22;85.37;100810.77;1632394;88;20917;-71
2022/02/03 09:58:25;;;;;;;21.80;6.30;;;;;;;3.63;84.72;100793.65;1653617;86;21498;-72
2022/02/03 10:01:06;;;;;;;26.15;5.40;;;;;;;3.68;84.61;100788.88;1653530;85;21409;-72
2022/02/03 10:03:36;;;;;;;16.75;4.87;;;;;;;3.72;84.55;100779.78;1650436;85;47292;-71
2022/02/03 10:06:06;;;;;;;16.00;4.83;;;;;;;3.78;84.45;100776.67;1636333;85;21322;-71
2022/02/03 10:08:26;;;;;;;24.20;8.10;;;;;;;3.81;84.33;100779.06;1640177;87;21027;-71
2022/02/03 10:11:13;;;;;;;25.45;8.65;;;;;;;3.86;84.27;100776.45;1641042;87;21071;-71
2022/02/03 10:13:58;;;;;;;21.50;5.10;;;;;;;3.90;84.16;100775.27;1640951;87;21473;-71
2022/02/03 10:16:28;;;;;;;34.65;11.45;;;;;;;3.94;84.08;100760.05;1630715;87;21030;-72
2022/02/03 10:19:10;;;;;;;25.70;9.78;;;;;;;4.02;84.00;100757.62;1639319;87;21126;-72
2022/02/03 10:21:35;;;;;;;23.40;7.08;;;;;;;4.06;83.93;100754.27;1640410;86;21103;-70
2022/02/03 10:24:04;;;;;;;16.40;4.70;;;;;;;4.08;83.85;100745.77;1639927;86;21769;-71
2022/02/03 10:26:37;;;;;;;18.65;5.42;;;;;;;4.12;83.75;100737.47;1640880;87;21012;-71
2022/02/03 10:29:04;;;;;;;29.07;7.85;;;;;;;4.17;83.65;100732.69;1630811;86;21062;-71
2022/02/03 10:31:38;;;;;;;15.03;4.10;;;;;;;4.25;83.52;100728.97;1631546;87;21086;-71
2022/02/03 10:34:09;;;;;;;20.88;4.60;;;;;;;4.34;83.45;100727.38;1634614;87;21564;-71
2022/02/03 10:36:52;;;;;;;16.25;5.10;;;;;;;4.40;83.34;100721.13;1626810;87;21002;-71
2022/02/03 11:08:48;;;;;;;16.45;4.72;;;;;;;5.27;81.96;100683.11;1628176;87;21483;-71
2022/02/03 11:11:19;;;;;;;23.15;7.47;;;;;;;5.40;81.88;100674.48;1630007;87;21139;-71
2022/02/03 11:13:42;;;;;;;25.23;5.42;;;;;;;5.52;81.81;100676.08;1631319;87;21064;-71
2022/02/03 11:16:10;;;;;;;19.77;4.87;;;;;;;5.62;81.70;100664.24;1630955;87;21469;-72
2022/02/03 11:18:36;;;;;;;29.30;7.90;;;;;;;5.68;81.54;100662.87;1631802;87;21024;-71
2022/02/03 11:21:02;;;;;;;21.65;5.37;;;;;;;5.72;81.44;100655.86;1630780;87;21128;-71
2022/02/03 11:44:35;;;;;;;22.30;5.20;;;;;;;6.06;80.50;100635.73;1618772;88;21085;-71
2022/02/03 11:47:24;;;;;;;21.65;4.83;;;;;;;6.11;80.42;100629.08;1621287;88;21019;-71
2022/02/03 11:52:52;;;;;;;21.50;4.70;;;;;;;6.18;80.19;100624.91;1618563;88;21067;-71
2022/02/03 11:55:20;;;;;;;25.20;5.85;;;;;;;6.21;80.05;100631.73;1623997;87;21101;-71
2022/02/03 12:17:00;;;;;;;17.42;4.75;;;;;;;6.46;79.21;100604.25;1621607;88;21811;-72
2022/02/03 12:22:21;;;;;;;28.75;8.63;;;;;;;6.59;78.97;100597.83;1621732;87;21031;-71
2022/02/03 12:25:03;;;;;;;70.20;21.77;;;;;;;6.64;78.85;100586.33;1620464;88;21110;-71
2022/02/03 12:27:57;;;;;;;41.00;15.63;;;;;;;6.69;78.72;100580.95;1622086;88;21030;-71
2022/02/03 12:30:23;;;;;;;54.20;19.10;;;;;;;6.73;78.57;100578.85;1617398;88;22027;-72
2022/02/03 12:40:29;;;;;;;17.95;4.25;;;;;;;6.93;78.27;100561.97;1623026;88;21019;-72
2022/02/03 12:42:52;;;;;;;19.73;5.30;;;;;;;6.93;78.11;100566.75;1621703;88;21092;-71
2022/02/03 12:45:17;;;;;;;23.38;4.97;;;;;;;6.99;78.02;100564.03;1622496;88;20951;-71
2022/02/03 12:47:47;;;;;;;16.30;4.87;;;;;;;7.08;77.93;100559.19;1592152;88;21579;-71
2022/02/03 12:50:18;;;;;;;18.60;4.40;;;;;;;7.11;77.84;100560.22;1617635;88;21025;-71
2022/02/03 12:52:45;;;;;;;24.12;4.85;;;;;;;7.16;77.76;100557.98;1624640;87;21032;-71
2022/02/03 12:55:25;;;;;;;12.28;4.00;;;;;;;7.21;77.64;100565.03;1614992;88;21096;-71
2022/02/03 12:57:51;;;;;;;17.15;4.37;;;;;;;7.23;77.47;100556.44;1610187;89;21096;-71
2022/02/03 13:00:28;;;;;;;17.52;5.83;;;;;;;7.23;77.36;100555.11;1610036;89;21019;-71
2022/02/03 13:02:57;;;;;;;19.32;5.90;;;;;;;7.18;77.21;100557.34;1609530;87;21062;-71
2022/02/03 13:05:29;;;;;;;13.03;4.28;;;;;;;7.10;77.11;100556.41;1610417;89;21026;-71
2022/02/03 13:07:57;;;;;;;14.00;3.62;;;;;;;7.03;77.04;100561.45;1610020;89;21167;-71
2022/02/03 13:10:26;;;;;;;16.45;5.17;;;;;;;6.96;76.96;100557.70;1610335;89;21018;-71
2022/02/03 13:13:06;;;;;;;15.80;4.85;;;;;;;6.93;76.91;100554.02;1610214;89;21081;-71
2022/02/03 13:15:38;;;;;;;18.87;4.33;;;;;;;6.93;76.83;100544.73;1608815;87;21051;-71
2022/02/03 13:18:16;;;;;;;28.83;11.90;;;;;;;6.95;76.77;100546.74;1612316;88;21058;-71
2022/02/03 13:20:41;;;;;;;32.88;12.47;;;;;;;6.96;76.73;100546.61;1621413;88;21142;-71
2022/02/03 13:23:06;;;;;;;24.30;9.68;;;;;;;6.97;76.67;100546.09;1617527;88;21051;-72
2022/02/03 13:25:38;;;;;;;22.48;9.55;;;;;;;6.95;76.59;100548.06;1607441;88;21489;-71
2022/02/03 13:28:04;;;;;;;22.75;8.28;;;;;;;6.97;76.54;100539.47;1587207;90;21047;-71
2022/02/03 13:31:02;;;;;;;27.93;9.80;;;;;;;6.95;76.50;100542.77;1587267;89;21484;-71
2022/02/03 13:33:39;;;;;;;30.70;11.50;;;;;;;6.96;76.46;100549.27;1587081;90;21151;-71
2022/02/03 13:36:04;;;;;;;17.23;7.75;;;;;;;6.98;76.42;100541.14;1586463;90;21043;-71
2022/02/03 13:41:15;;;;;;;20.20;8.68;;;;;;;6.99;76.33;100538.85;1595093;89;21163;-71
2022/02/03 13:43:41;;;;;;;16.87;5.92;;;;;;;7.01;76.27;100536.88;1629500;87;21029;-71
2022/02/03 13:46:08;;;;;;;18.85;6.55;;;;;;;7.03;76.22;100538.91;1623056;88;21820;-71
2022/02/03 13:48:37;;;;;;;15.63;5.67;;;;;;;7.03;76.17;100535.78;1622963;87;21029;-71
2022/02/03 13:51:03;;;;;;;19.67;6.55;;;;;;;7.04;76.14;100527.30;1629548;87;20982;-71
2022/02/03 13:53:42;;;;;;;20.35;7.33;;;;;;;7.07;76.13;100527.05;1591749;88;21035;-71
2022/02/03 14:10:50;;;;;;;130.00;45.55;;;;;;;7.07;76.07;100516.44;1619113;88;21086;-71
2022/02/03 14:21:27;;;;;;;38.30;15.53;;;;;;;6.95;75.86;100504.32;1622052;88;21053;-71
2022/02/03 14:26:55;;;;;;;93.22;28.73;;;;;;;6.89;75.73;100495.63;1621395;88;21525;-71
2022/02/03 14:29:23;;;;;;;43.78;14.18;;;;;;;6.85;75.69;100496.41;1629430;87;21072;-71
2022/02/03 14:31:56;;;;;;;26.50;8.20;;;;;;;6.81;75.62;100491.52;1651042;85;21064;-71
2022/02/03 14:34:23;;;;;;;19.45;6.83;;;;;;;6.79;75.58;100485.55;1638565;86;21091;-71
2022/02/03 14:36:47;;;;;;;34.63;10.45;;;;;;;6.75;75.53;100483.67;1633168;87;21069;-71
2022/02/03 14:39:18;;;;;;;20.27;8.13;;;;;;;6.75;75.49;100482.83;1632111;87;21241;-71
2022/02/03 14:41:45;;;;;;;22.67;6.50;;;;;;;6.73;75.44;100482.13;1650535;86;21073;-71
2022/02/03 14:44:09;;;;;;;32.42;13.20;;;;;;;6.71;75.42;100477.47;1650913;86;21060;-71
2022/02/03 14:46:35;;;;;;;53.42;19.45;;;;;;;6.70;75.40;100469.16;1651004;86;21040;-71
2022/02/03 14:49:01;;;;;;;53.35;17.95;;;;;;;6.70;75.39;100471.81;1639686;87;21077;-71
2022/02/03 14:51:42;;;;;;;37.95;12.33;;;;;;;6.68;75.35;100469.33;1631255;88;21093;-71
2022/02/03 14:59:11;;;;;;;16.70;7.42;;;;;;;6.66;75.30;100463.80;1606781;89;21564;-71
2022/02/03 15:01:39;;;;;;;17.52;6.17;;;;;;;6.66;75.33;100461.15;1611611;87;21130;-71
2022/02/03 15:04:08;;;;;;;24.35;9.75;;;;;;;6.64;75.32;100459.14;1623713;86;21310;-71
2022/02/03 15:06:40;;;;;;;11.95;5.55;;;;;;;6.62;75.33;100457.11;1631814;87;20998;-70
2022/02/03 15:09:33;;;;;;;14.65;6.42;;;;;;;6.59;75.31;100454.75;1632506;87;21057;-71
2022/02/03 15:11:57;;;;;;;12.03;5.17;;;;;;;6.53;75.32;100452.20;1631313;87;20990;-71
2022/02/03 15:14:11;;;;;;;14.73;5.65;;;;;;;6.44;75.35;100455.19;1628163;87;21018;-71
2022/02/03 15:16:37;;;;;;;14.80;4.55;;;;;;;6.35;75.35;100451.25;1611315;87;21097;-71
2022/02/03 15:19:03;;;;;;;13.25;4.70;;;;;;;6.25;75.36;100463.18;1630389;87;20922;-71
2022/02/03 15:21:29;;;;;;;11.45;4.80;;;;;;;6.15;75.37;100456.22;1631044;87;21087;-71
2022/02/03 15:23:55;;;;;;;14.23;4.33;;;;;;;6.02;75.42;100446.73;1629771;88;21018;-71
2022/02/03 15:26:22;;;;;;;12.53;4.08;;;;;;;5.96;75.52;100449.11;1632956;87;21514;-71
2022/02/03 15:28:48;;;;;;;11.73;4.37;;;;;;;5.88;75.64;100448.95;1632311;87;21895;-71
2022/02/03 15:31:14;;;;;;;36.63;19.20;;;;;;;5.81;75.70;100448.64;1635739;86;21461;-71
2022/02/03 15:33:46;;;;;;;19.95;10.08;;;;;;;5.75;75.83;100437.78;1655444;86;21307;-71
2022/02/03 15:36:12;;;;;;;19.37;10.28;;;;;;;5.70;75.95;100443.48;1640072;86;21078;-71
2022/02/03 15:38:38;;;;;;;65.42;30.60;;;;;;;5.66;76.07;100445.23;1632867;87;21026;-71
2022/02/03 15:41:07;;;;;;;60.63;24.87;;;;;;;5.61;76.23;100442.16;1602847;88;21738;-71
2022/02/03 15:43:41;;;;;;;89.15;38.23;;;;;;;5.59;76.38;100440.98;1589991;88;21031;-71
2022/02/03 15:46:06;;;;;;;55.67;27.07;;;;;;;5.52;76.52;100441.98;1592371;89;21566;-71
2022/02/03 15:48:43;;;;;;;23.77;12.33;;;;;;;5.45;76.64;100438.73;1632359;88;21096;-71
2022/02/03 16:16:18;;;;;;;35.20;17.98;;;;;;;5.09;78.00;100411.08;1633457;87;21917;-71
2022/02/03 16:17:43;;;;;;;59.75;24.75;;;;;;;5.09;78.13;100414.20;1630975;87;21011;-70
2022/02/03 16:20:15;;;;;;;73.30;30.27;;;;;;;5.07;78.29;100406.40;1644225;86;21919;-71
2022/02/03 16:23:01;;;;;;;62.13;25.80;;;;;;;5.04;78.40;100412.80;1650252;86;21045;-71
2022/02/03 16:52:46;;;;;;;26.15;11.18;;;;;;;4.73;79.66;100386.05;1613731;87;21028;-72
2022/02/03 16:55:15;;;;;;;31.90;12.65;;;;;;;4.69;79.80;100386.45;1635860;87;21043;-72
2022/02/03 16:57:39;;;;;;;44.50;17.95;;;;;;;4.67;79.89;100383.11;1621441;87;21041;-72
2022/02/03 17:00:10;;;;;;;51.30;15.70;;;;;;;4.63;80.00;100379.91;1640648;87;21465;-72
2022/02/03 17:02:35;;;;;;;23.73;10.03;;;;;;;4.61;80.09;100381.02;1620344;88;28555;-72
2022/02/03 17:05:01;;;;;;;27.15;10.63;;;;;;;4.59;80.16;100381.61;1627325;87;21049;-72
2022/02/03 17:07:27;;;;;;;22.90;8.88;;;;;;;4.56;80.25;100380.56;1641078;87;21053;-72
2022/02/03 17:09:55;;;;;;;26.30;11.63;;;;;;;4.55;80.36;100383.67;1641076;87;21030;-72
2022/02/03 17:12:21;;;;;;;32.40;15.03;;;;;;;4.54;80.44;100380.67;1641035;87;21067;-72
2022/02/03 17:14:47;;;;;;;29.67;13.15;;;;;;;4.54;80.54;100378.88;1640766;87;21106;-72
2022/02/03 17:17:13;;;;;;;27.10;11.63;;;;;;;4.55;80.65;100382.36;1639473;87;21041;-71
2022/02/03 17:19:39;;;;;;;30.88;11.38;;;;;;;4.53;80.72;100375.91;1645883;87;21009;-72
2022/02/03 17:22:07;;;;;;;28.07;9.93;;;;;;;4.57;80.84;100379.59;1646109;87;21114;-72
2022/02/03 17:24:35;;;;;;;23.25;10.03;;;;;;;4.57;80.93;100369.03;1645234;87;21166;-72
2022/02/03 17:27:14;;;;;;;63.13;32.00;;;;;;;4.58;81.07;100377.29;1645325;85;21424;-72
2022/02/03 17:52:15;;;;;;;170.92;77.55;;;;;;;4.52;81.73;100363.66;1667165;84;21551;-76
2022/02/03 17:52:29;;;;;;;58.42;25.62;;;;;;;4.51;81.90;100363.30;1659722;84;21074;-73
2022/02/03 18:05:13;;;;;;;35.08;15.05;;;;;;;4.58;82.35;100360.97;1664702;84;21185;-74
2022/02/03 18:07:36;;;;;;;28.83;12.47;;;;;;;4.58;82.44;100358.33;1657142;84;21569;-73
2022/02/03 18:18:23;;;;;;;36.75;19.42;;;;;;;4.50;82.73;100345.78;1675103;85;21100;-73
2022/02/03 18:52:12;;;;;;;23.02;11.65;;;;;;;4.45;83.71;100340.08;1675122;85;21025;-73
2022/02/03 18:54:53;;;;;;;17.25;10.05;;;;;;;4.45;83.77;100339.23;1659134;86;21560;-73
2022/02/03 18:57:23;;;;;;;24.30;15.00;;;;;;;4.43;83.82;100334.08;1656269;85;21133;-73
2022/02/03 19:00:07;;;;;;;36.17;19.37;;;;;;;4.46;83.87;100335.63;1656962;86;21035;-73
2022/02/03 19:10:44;;;;;;;14.50;8.83;;;;;;;4.48;84.13;100330.56;1675225;84;21164;-72
2022/02/03 19:15:52;;;;;;;17.95;10.32;;;;;;;4.47;84.28;100328.05;1675165;85;21082;-72
2022/02/03 19:21:15;;;;;;;17.65;9.90;;;;;;;4.44;84.41;100326.52;1660516;86;21090;-72
2022/02/03 20:04:18;;;;;;;29.27;17.60;;;;;;;4.41;85.30;100303.02;1628636;88;21224;-73
2022/02/03 20:09:11;;;;;;;16.30;8.75;;;;;;;4.44;85.41;100290.88;1645745;85;20941;-73
2022/02/03 20:11:28;;;;;;;23.95;13.78;;;;;;;4.44;85.43;100294.83;1655671;85;21032;-73
2022/02/03 20:13:54;;;;;;;28.45;18.37;;;;;;;4.44;85.47;100282.95;1659581;84;21118;-73
2022/02/03 20:16:22;;;;;;;22.15;14.60;;;;;;;4.44;85.49;100280.31;1655511;85;21491;-72
2022/02/03 20:18:48;;;;;;;18.30;9.75;;;;;;;4.45;85.57;100279.34;1655889;85;21088;-73
2022/02/03 20:21:14;;;;;;;21.93;11.05;;;;;;;4.44;85.61;100272.87;1641331;87;20936;-72
2022/02/03 20:23:45;;;;;;;17.52;9.20;;;;;;;4.45;85.66;100281.15;1647050;87;21061;-72
2022/02/03 20:26:13;;;;;;;17.82;10.18;;;;;;;4.42;85.69;100270.38;1649635;86;21084;-72
2022/02/03 20:28:40;;;;;;;16.85;10.93;;;;;;;4.40;85.69;100263.06;1643660;85;21069;-72
2022/02/03 20:31:06;;;;;;;13.13;7.90;;;;;;;4.40;85.73;100265.70;1635609;85;21087;-72
2022/02/03 20:33:32;;;;;;;15.00;8.45;;;;;;;4.40;85.76;100260.91;1645156;86;21029;-72
2022/02/03 20:35:58;;;;;;;14.78;8.38;;;;;;;4.41;85.79;100266.54;1653084;86;21151;-72
2022/02/03 20:38:24;;;;;;;15.93;7.95;;;;;;;4.43;85.84;100265.43;1664814;86;21076;-72
2022/02/03 20:40:50;;;;;;;13.62;8.40;;;;;;;4.44;85.89;100267.11;1663399;86;21159;-72
2022/02/03 20:43:16;;;;;;;15.83;9.60;;;;;;;4.46;85.93;100264.34;1648449;86;20916;-72
2022/02/03 20:45:43;;;;;;;17.67;9.33;;;;;;;4.46;85.96;100257.27;1645992;87;21039;-72
2022/02/03 20:48:10;;;;;;;17.98;9.13;;;;;;;4.48;86.01;100266.36;1645915;87;21032;-72
2022/02/03 20:50:36;;;;;;;21.15;10.28;;;;;;;4.48;86.07;100263.23;1647150;86;21055;-72
2022/02/03 20:53:03;;;;;;;18.52;9.28;;;;;;;4.49;86.11;100267.56;1655170;86;21800;-72
2022/02/03 20:55:29;;;;;;;18.20;10.05;;;;;;;4.49;86.14;100267.56;1652268;86;21019;-72
2022/02/03 20:57:55;;;;;;;18.00;10.53;;;;;;;4.49;86.17;100269.36;1645731;87;21086;-72
2022/02/03 21:00:25;;;;;;;18.77;9.68;;;;;;;4.46;86.19;100259.06;1646879;86;21028;-73
2022/02/03 21:02:59;;;;;;;13.43;8.33;;;;;;;4.46;86.22;100258.59;1647324;84;21122;-72
2022/02/03 21:05:20;;;;;;;14.15;8.65;;;;;;;4.45;86.23;100254.27;1655904;84;21839;-73
2022/02/03 21:07:47;;;;;;;15.18;9.50;;;;;;;4.47;86.26;100259.39;1644424;84;21028;-72
2022/02/03 21:10:18;;;;;;;14.95;8.48;;;;;;;4.47;86.29;100254.95;1657109;84;21107;-72
2022/02/03 21:12:46;;;;;;;14.50;8.68;;;;;;;4.47;86.32;100253.63;1657040;84;21015;-73
2022/02/03 21:15:14;;;;;;;32.17;13.28;;;;;;;4.47;86.32;100261.55;1649762;84;21058;-73
2022/02/03 21:17:40;;;;;;;20.30;10.82;;;;;;;4.48;86.35;100253.16;1656691;84;21279;-73
2022/02/03 21:20:14;;;;;;;19.77;9.88;;;;;;;4.52;86.38;100255.88;1641673;84;21044;-73
2022/02/03 21:22:38;;;;;;;27.55;11.60;;;;;;;4.53;86.44;100251.80;1638317;86;21099;-73
2022/02/03 21:25:19;;;;;;;36.95;18.50;;;;;;;4.57;86.47;100258.13;1654230;84;21099;-73